sensor_id;sensor_type;location;lat;lon;timestamp;P1;durP1;ratioP1;P2;durP2;ratioP2
44046;SDS011;29713;-33.888;151.150;2022-10-16T00:01:30;1.33;;;0.52;;
44046;SDS011;29713;-33.888;151.150;2022-10-16T00:03:58;3.33;;;0.70;;
44046;SDS011;29713;-33.888;151.150;2022-10-16T00:06:27;1.85;;;0.82;;
44046;SDS011;29713;-33.888;151.150;2022-10-16T00:08:55;2.38;;;0.80;;
44046;SDS011;29713;-33.888;151.150;2022-10-16T00:11:23;4.15;;;0.88;;
44046;SDS011;29713;-33.888;151.150;2022-10-16T00:13:55;3.80;;;0.75;;
44046;SDS011;29713;-33.888;151.150;2022-10-16T00:16:24;2.13;;;0.73;;
44046;SDS011;29713;-33.888;151.150;2022-10-16T00:18:53;2.35;;;0.70;;
44046;SDS011;29713;-33.888;151.150;2022-10-16T00:21:22;4.15;;;0.88;;
44046;SDS011;29713;-33.888;151.150;2022-10-16T00:23:55;2.30;;;0.82;;
44046;SDS011;29713;-33.888;151.150;2022-10-16T00:26:28;5.32;;;1.10;;
44046;SDS011;29713;-33.888;151.150;2022-10-16T00:28:56;3.75;;;0.98;;
44046;SDS011;29713;-33.888;151.150;2022-10-16T00:31:25;2.90;;;0.85;;
44046;SDS011;29713;-33.888;151.150;2022-10-16T00:33:53;3.78;;;0.90;;
44046;SDS011;29713;-33.888;151.150;2022-10-16T00:36:22;4.80;;;0.80;;
44046;SDS011;29713;-33.888;151.150;2022-10-16T00:38:51;3.90;;;0.98;;
44046;SDS011;29713;-33.888;151.150;2022-10-16T00:41:20;2.78;;;0.73;;
44046;SDS011;29713;-33.888;151.150;2022-10-16T00:43:50;2.58;;;0.90;;
44046;SDS011;29713;-33.888;151.150;2022-10-16T00:51:43;2.78;;;0.80;;
44046;SDS011;29713;-33.888;151.150;2022-10-16T00:54:22;2.38;;;0.85;;
44046;SDS011;29713;-33.888;151.150;2022-10-16T00:56:55;3.53;;;0.93;;
44046;SDS011;29713;-33.888;151.150;2022-10-16T00:59:31;2.53;;;1.05;;
44046;SDS011;29713;-33.888;151.150;2022-10-16T01:02:04;2.28;;;0.90;;
44046;SDS011;29713;-33.888;151.150;2022-10-16T01:04:36;5.57;;;1.10;;
44046;SDS011;29713;-33.888;151.150;2022-10-16T01:07:14;2.15;;;0.80;;
44046;SDS011;29713;-33.888;151.150;2022-10-16T01:13:35;6.32;;;1.05;;
44046;SDS011;29713;-33.888;151.150;2022-10-16T01:16:05;4.35;;;1.00;;
44046;SDS011;29713;-33.888;151.150;2022-10-16T01:18:47;3.05;;;1.00;;
44046;SDS011;29713;-33.888;151.150;2022-10-16T01:26:52;4.03;;;1.00;;
44046;SDS011;29713;-33.888;151.150;2022-10-16T01:29:29;3.47;;;1.00;;
44046;SDS011;29713;-33.888;151.150;2022-10-16T01:37:45;7.57;;;1.27;;
44046;SDS011;29713;-33.888;151.150;2022-10-16T01:40:34;4.15;;;0.95;;
44046;SDS011;29713;-33.888;151.150;2022-10-16T01:43:06;5.10;;;1.08;;
44046;SDS011;29713;-33.888;151.150;2022-10-16T01:45:38;3.03;;;1.00;;
44046;SDS011;29713;-33.888;151.150;2022-10-16T01:48:06;3.97;;;1.00;;
44046;SDS011;29713;-33.888;151.150;2022-10-16T01:50:37;3.15;;;0.98;;
44046;SDS011;29713;-33.888;151.150;2022-10-16T01:53:07;2.80;;;1.05;;
44046;SDS011;29713;-33.888;151.150;2022-10-16T01:55:38;3.28;;;1.10;;
44046;SDS011;29713;-33.888;151.150;2022-10-16T01:58:10;2.33;;;0.88;;
44046;SDS011;29713;-33.888;151.150;2022-10-16T02:00:39;4.63;;;1.00;;
44046;SDS011;29713;-33.888;151.150;2022-10-16T02:03:11;2.25;;;0.90;;
44046;SDS011;29713;-33.888;151.150;2022-10-16T02:05:46;3.60;;;1.10;;
44046;SDS011;29713;-33.888;151.150;2022-10-16T02:08:13;4.60;;;1.08;;
44046;SDS011;29713;-33.888;151.150;2022-10-16T02:10:41;4.90;;;1.05;;
44046;SDS011;29713;-33.888;151.150;2022-10-16T02:13:17;2.78;;;0.95;;
44046;SDS011;29713;-33.888;151.150;2022-10-16T02:16:11;2.47;;;0.90;;
44046;SDS011;29713;-33.888;151.150;2022-10-16T02:18:40;4.13;;;1.05;;
44046;SDS011;29713;-33.888;151.150;2022-10-16T02:21:25;4.85;;;1.15;;
44046;SDS011;29713;-33.888;151.150;2022-10-16T02:29:29;5.13;;;0.90;;
44046;SDS011;29713;-33.888;151.150;2022-10-16T02:31:59;4.53;;;1.20;;
44046;SDS011;29713;-33.888;151.150;2022-10-16T02:34:30;5.50;;;1.10;;
44046;SDS011;29713;-33.888;151.150;2022-10-16T02:37:00;4.60;;;1.20;;
44046;SDS011;29713;-33.888;151.150;2022-10-16T02:39:30;4.47;;;1.13;;
44046;SDS011;29713;-33.888;151.150;2022-10-16T02:41:58;4.65;;;1.05;;
44046;SDS011;29713;-33.888;151.150;2022-10-16T02:44:26;4.28;;;1.08;;
44046;SDS011;29713;-33.888;151.150;2022-10-16T02:46:53;3.97;;;1.23;;
44046;SDS011;29713;-33.888;151.150;2022-10-16T02:49:20;3.72;;;0.85;;
44046;SDS011;29713;-33.888;151.150;2022-10-16T02:51:47;3.33;;;1.00;;
44046;SDS011;29713;-33.888;151.150;2022-10-16T02:54:15;2.20;;;1.00;;
44046;SDS011;29713;-33.888;151.150;2022-10-16T02:56:42;3.38;;;0.82;;
44046;SDS011;29713;-33.888;151.150;2022-10-16T02:59:09;6.93;;;1.20;;
44046;SDS011;29713;-33.888;151.150;2022-10-16T03:01:37;3.33;;;0.80;;
44046;SDS011;29713;-33.888;151.150;2022-10-16T03:04:04;4.45;;;0.98;;
44046;SDS011;29713;-33.888;151.150;2022-10-16T03:06:31;3.30;;;0.90;;
44046;SDS011;29713;-33.888;151.150;2022-10-16T03:08:59;2.90;;;0.80;;
44046;SDS011;29713;-33.888;151.150;2022-10-16T03:11:26;3.33;;;0.85;;
44046;SDS011;29713;-33.888;151.150;2022-10-16T03:13:53;3.38;;;0.98;;
44046;SDS011;29713;-33.888;151.150;2022-10-16T03:16:21;8.13;;;1.40;;
44046;SDS011;29713;-33.888;151.150;2022-10-16T03:18:48;3.78;;;1.13;;
44046;SDS011;29713;-33.888;151.150;2022-10-16T03:21:16;3.88;;;1.00;;
44046;SDS011;29713;-33.888;151.150;2022-10-16T03:23:43;3.90;;;0.85;;
44046;SDS011;29713;-33.888;151.150;2022-10-16T03:26:10;5.25;;;0.80;;
44046;SDS011;29713;-33.888;151.150;2022-10-16T03:28:38;3.22;;;0.73;;
44046;SDS011;29713;-33.888;151.150;2022-10-16T03:31:05;4.47;;;1.00;;
44046;SDS011;29713;-33.888;151.150;2022-10-16T03:33:33;1.73;;;0.95;;
44046;SDS011;29713;-33.888;151.150;2022-10-16T03:36:01;3.40;;;1.20;;
44046;SDS011;29713;-33.888;151.150;2022-10-16T03:38:28;3.08;;;1.08;;
44046;SDS011;29713;-33.888;151.150;2022-10-16T03:40:55;2.65;;;1.10;;
44046;SDS011;29713;-33.888;151.150;2022-10-16T03:43:23;4.22;;;1.02;;
44046;SDS011;29713;-33.888;151.150;2022-10-16T03:45:50;5.63;;;0.80;;
44046;SDS011;29713;-33.888;151.150;2022-10-16T03:48:18;4.20;;;1.27;;
44046;SDS011;29713;-33.888;151.150;2022-10-16T03:50:45;3.40;;;1.10;;
44046;SDS011;29713;-33.888;151.150;2022-10-16T03:53:14;4.03;;;1.02;;
44046;SDS011;29713;-33.888;151.150;2022-10-16T03:55:42;5.13;;;0.90;;
44046;SDS011;29713;-33.888;151.150;2022-10-16T03:58:10;3.17;;;0.80;;
44046;SDS011;29713;-33.888;151.150;2022-10-16T04:00:44;2.70;;;1.00;;
44046;SDS011;29713;-33.888;151.150;2022-10-16T04:03:13;5.82;;;1.40;;
44046;SDS011;29713;-33.888;151.150;2022-10-16T04:05:40;2.80;;;0.70;;
44046;SDS011;29713;-33.888;151.150;2022-10-16T04:08:07;4.00;;;1.10;;
44046;SDS011;29713;-33.888;151.150;2022-10-16T04:10:35;1.92;;;0.70;;
44046;SDS011;29713;-33.888;151.150;2022-10-16T04:13:02;6.15;;;1.13;;
44046;SDS011;29713;-33.888;151.150;2022-10-16T04:15:29;3.17;;;0.82;;
44046;SDS011;29713;-33.888;151.150;2022-10-16T04:17:57;5.13;;;0.85;;
44046;SDS011;29713;-33.888;151.150;2022-10-16T04:20:24;7.80;;;1.25;;
44046;SDS011;29713;-33.888;151.150;2022-10-16T04:22:51;3.55;;;1.00;;
44046;SDS011;29713;-33.888;151.150;2022-10-16T04:25:19;4.00;;;1.00;;
44046;SDS011;29713;-33.888;151.150;2022-10-16T04:27:46;2.67;;;0.80;;
44046;SDS011;29713;-33.888;151.150;2022-10-16T04:30:13;2.38;;;0.70;;
44046;SDS011;29713;-33.888;151.150;2022-10-16T04:32:41;9.35;;;1.20;;
44046;SDS011;29713;-33.888;151.150;2022-10-16T04:35:08;4.85;;;1.00;;
44046;SDS011;29713;-33.888;151.150;2022-10-16T04:37:35;4.13;;;1.08;;
44046;SDS011;29713;-33.888;151.150;2022-10-16T04:40:03;5.38;;;1.30;;
44046;SDS011;29713;-33.888;151.150;2022-10-16T04:42:30;2.65;;;0.77;;
44046;SDS011;29713;-33.888;151.150;2022-10-16T04:44:58;6.38;;;1.00;;
44046;SDS011;29713;-33.888;151.150;2022-10-16T04:47:25;6.25;;;1.10;;
44046;SDS011;29713;-33.888;151.150;2022-10-16T04:49:52;7.25;;;1.10;;
44046;SDS011;29713;-33.888;151.150;2022-10-16T04:52:20;3.08;;;0.90;;
44046;SDS011;29713;-33.888;151.150;2022-10-16T04:54:50;4.20;;;1.10;;
44046;SDS011;29713;-33.888;151.150;2022-10-16T04:57:17;3.22;;;0.95;;
44046;SDS011;29713;-33.888;151.150;2022-10-16T04:59:44;2.95;;;0.90;;
44046;SDS011;29713;-33.888;151.150;2022-10-16T05:02:12;4.15;;;1.38;;
44046;SDS011;29713;-33.888;151.150;2022-10-16T05:04:39;4.60;;;1.02;;
44046;SDS011;29713;-33.888;151.150;2022-10-16T05:07:06;6.50;;;0.90;;
44046;SDS011;29713;-33.888;151.150;2022-10-16T05:09:34;3.00;;;1.23;;
44046;SDS011;29713;-33.888;151.150;2022-10-16T05:12:01;2.63;;;0.60;;
44046;SDS011;29713;-33.888;151.150;2022-10-16T05:14:29;3.42;;;1.00;;
44046;SDS011;29713;-33.888;151.150;2022-10-16T05:16:56;5.82;;;0.90;;
44046;SDS011;29713;-33.888;151.150;2022-10-16T05:19:25;5.63;;;0.90;;
44046;SDS011;29713;-33.888;151.150;2022-10-16T05:21:52;4.25;;;1.17;;
44046;SDS011;29713;-33.888;151.150;2022-10-16T05:24:19;2.25;;;0.82;;
44046;SDS011;29713;-33.888;151.150;2022-10-16T05:26:47;4.03;;;0.90;;
44046;SDS011;29713;-33.888;151.150;2022-10-16T05:29:14;4.18;;;1.10;;
44046;SDS011;29713;-33.888;151.150;2022-10-16T05:31:41;2.72;;;0.90;;
44046;SDS011;29713;-33.888;151.150;2022-10-16T05:34:09;3.30;;;0.80;;
44046;SDS011;29713;-33.888;151.150;2022-10-16T05:36:36;1.75;;;0.90;;
44046;SDS011;29713;-33.888;151.150;2022-10-16T05:39:03;3.00;;;0.70;;
44046;SDS011;29713;-33.888;151.150;2022-10-16T05:41:30;6.40;;;1.05;;
44046;SDS011;29713;-33.888;151.150;2022-10-16T05:43:58;4.63;;;0.90;;
44046;SDS011;29713;-33.888;151.150;2022-10-16T05:46:25;1.55;;;0.70;;
44046;SDS011;29713;-33.888;151.150;2022-10-16T05:48:52;5.10;;;1.17;;
44046;SDS011;29713;-33.888;151.150;2022-10-16T05:51:20;3.22;;;1.13;;
44046;SDS011;29713;-33.888;151.150;2022-10-16T05:53:47;3.13;;;0.80;;
44046;SDS011;29713;-33.888;151.150;2022-10-16T05:56:15;5.18;;;1.02;;
44046;SDS011;29713;-33.888;151.150;2022-10-16T05:58:42;4.07;;;1.00;;
44046;SDS011;29713;-33.888;151.150;2022-10-16T06:01:11;5.60;;;1.00;;
44046;SDS011;29713;-33.888;151.150;2022-10-16T06:03:43;3.13;;;0.93;;
44046;SDS011;29713;-33.888;151.150;2022-10-16T06:06:14;4.00;;;1.00;;
44046;SDS011;29713;-33.888;151.150;2022-10-16T06:08:43;5.70;;;1.10;;
44046;SDS011;29713;-33.888;151.150;2022-10-16T06:11:17;3.30;;;1.10;;
44046;SDS011;29713;-33.888;151.150;2022-10-16T06:13:49;5.43;;;1.10;;
44046;SDS011;29713;-33.888;151.150;2022-10-16T06:16:22;7.75;;;0.90;;
44046;SDS011;29713;-33.888;151.150;2022-10-16T06:18:54;3.30;;;0.98;;
44046;SDS011;29713;-33.888;151.150;2022-10-16T06:21:23;3.10;;;1.00;;
44046;SDS011;29713;-33.888;151.150;2022-10-16T06:23:52;2.75;;;0.80;;
44046;SDS011;29713;-33.888;151.150;2022-10-16T06:26:21;5.43;;;1.00;;
44046;SDS011;29713;-33.888;151.150;2022-10-16T06:28:50;2.95;;;0.80;;
44046;SDS011;29713;-33.888;151.150;2022-10-16T06:31:17;3.65;;;0.98;;
44046;SDS011;29713;-33.888;151.150;2022-10-16T06:33:44;5.72;;;0.90;;
44046;SDS011;29713;-33.888;151.150;2022-10-16T06:36:16;2.15;;;0.88;;
44046;SDS011;29713;-33.888;151.150;2022-10-16T06:38:44;3.42;;;0.98;;
44046;SDS011;29713;-33.888;151.150;2022-10-16T06:41:14;3.30;;;1.05;;
44046;SDS011;29713;-33.888;151.150;2022-10-16T06:43:42;4.35;;;1.00;;
44046;SDS011;29713;-33.888;151.150;2022-10-16T06:46:14;6.70;;;1.63;;
44046;SDS011;29713;-33.888;151.150;2022-10-16T06:48:42;8.88;;;2.60;;
44046;SDS011;29713;-33.888;151.150;2022-10-16T06:51:14;3.75;;;1.05;;
44046;SDS011;29713;-33.888;151.150;2022-10-16T06:53:44;3.05;;;0.98;;
44046;SDS011;29713;-33.888;151.150;2022-10-16T06:56:24;4.75;;;1.65;;
44046;SDS011;29713;-33.888;151.150;2022-10-16T06:58:55;5.43;;;1.55;;
44046;SDS011;29713;-33.888;151.150;2022-10-16T07:01:24;4.88;;;1.15;;
44046;SDS011;29713;-33.888;151.150;2022-10-16T07:03:52;4.78;;;2.13;;
44046;SDS011;29713;-33.888;151.150;2022-10-16T07:06:20;4.25;;;1.30;;
44046;SDS011;29713;-33.888;151.150;2022-10-16T07:08:48;2.88;;;0.98;;
44046;SDS011;29713;-33.888;151.150;2022-10-16T07:11:20;4.43;;;1.65;;
44046;SDS011;29713;-33.888;151.150;2022-10-16T07:13:49;4.70;;;1.42;;
44046;SDS011;29713;-33.888;151.150;2022-10-16T07:16:18;5.32;;;1.45;;
44046;SDS011;29713;-33.888;151.150;2022-10-16T07:18:48;3.63;;;1.08;;
44046;SDS011;29713;-33.888;151.150;2022-10-16T07:21:18;3.25;;;1.10;;
44046;SDS011;29713;-33.888;151.150;2022-10-16T07:23:50;3.20;;;1.13;;
44046;SDS011;29713;-33.888;151.150;2022-10-16T07:26:22;6.38;;;1.40;;
44046;SDS011;29713;-33.888;151.150;2022-10-16T07:28:50;7.80;;;1.08;;
44046;SDS011;29713;-33.888;151.150;2022-10-16T07:31:18;4.70;;;1.23;;
44046;SDS011;29713;-33.888;151.150;2022-10-16T07:33:48;2.22;;;1.10;;
44046;SDS011;29713;-33.888;151.150;2022-10-16T07:36:16;3.65;;;0.80;;
44046;SDS011;29713;-33.888;151.150;2022-10-16T07:38:45;4.78;;;1.13;;
44046;SDS011;29713;-33.888;151.150;2022-10-16T07:41:14;8.30;;;1.15;;
44046;SDS011;29713;-33.888;151.150;2022-10-16T07:43:49;3.22;;;1.20;;
44046;SDS011;29713;-33.888;151.150;2022-10-16T07:46:20;4.40;;;1.25;;
44046;SDS011;29713;-33.888;151.150;2022-10-16T07:48:48;2.80;;;1.27;;
44046;SDS011;29713;-33.888;151.150;2022-10-16T07:51:20;3.42;;;1.10;;
44046;SDS011;29713;-33.888;151.150;2022-10-16T07:53:49;5.18;;;0.82;;
44046;SDS011;29713;-33.888;151.150;2022-10-16T07:56:17;4.32;;;0.85;;
44046;SDS011;29713;-33.888;151.150;2022-10-16T07:58:45;4.05;;;1.17;;
44046;SDS011;29713;-33.888;151.150;2022-10-16T08:01:15;3.60;;;1.05;;
44046;SDS011;29713;-33.888;151.150;2022-10-16T08:03:44;2.70;;;0.80;;
44046;SDS011;29713;-33.888;151.150;2022-10-16T08:06:13;6.20;;;1.17;;
44046;SDS011;29713;-33.888;151.150;2022-10-16T08:08:41;3.03;;;0.80;;
44046;SDS011;29713;-33.888;151.150;2022-10-16T08:11:08;5.85;;;1.75;;
44046;SDS011;29713;-33.888;151.150;2022-10-16T08:13:36;3.97;;;1.20;;
44046;SDS011;29713;-33.888;151.150;2022-10-16T08:16:03;9.25;;;2.20;;
44046;SDS011;29713;-33.888;151.150;2022-10-16T08:18:36;3.28;;;1.42;;
44046;SDS011;29713;-33.888;151.150;2022-10-16T08:21:04;3.70;;;1.10;;
44046;SDS011;29713;-33.888;151.150;2022-10-16T08:23:33;4.18;;;1.23;;
44046;SDS011;29713;-33.888;151.150;2022-10-16T08:26:04;3.35;;;0.90;;
44046;SDS011;29713;-33.888;151.150;2022-10-16T08:28:33;4.00;;;1.38;;
44046;SDS011;29713;-33.888;151.150;2022-10-16T08:31:19;4.47;;;0.95;;
44046;SDS011;29713;-33.888;151.150;2022-10-16T08:33:46;3.92;;;1.30;;
44046;SDS011;29713;-33.888;151.150;2022-10-16T08:36:15;5.63;;;1.40;;
44046;SDS011;29713;-33.888;151.150;2022-10-16T08:38:42;3.88;;;1.42;;
44046;SDS011;29713;-33.888;151.150;2022-10-16T08:44:30;5.30;;;1.38;;
44046;SDS011;29713;-33.888;151.150;2022-10-16T08:49:57;4.22;;;1.00;;
44046;SDS011;29713;-33.888;151.150;2022-10-16T08:52:35;3.80;;;1.02;;
44046;SDS011;29713;-33.888;151.150;2022-10-16T08:55:10;4.57;;;1.10;;
44046;SDS011;29713;-33.888;151.150;2022-10-16T08:57:55;3.25;;;1.15;;
44046;SDS011;29713;-33.888;151.150;2022-10-16T09:00:22;4.72;;;1.13;;
44046;SDS011;29713;-33.888;151.150;2022-10-16T09:05:44;2.55;;;1.25;;
44046;SDS011;29713;-33.888;151.150;2022-10-16T09:16:51;2.50;;;1.10;;
44046;SDS011;29713;-33.888;151.150;2022-10-16T09:22:12;4.68;;;1.30;;
44046;SDS011;29713;-33.888;151.150;2022-10-16T09:24:42;5.03;;;1.35;;
44046;SDS011;29713;-33.888;151.150;2022-10-16T09:27:13;5.55;;;1.38;;
44046;SDS011;29713;-33.888;151.150;2022-10-16T09:29:41;3.63;;;1.00;;
44046;SDS011;29713;-33.888;151.150;2022-10-16T09:32:15;4.68;;;1.13;;
44046;SDS011;29713;-33.888;151.150;2022-10-16T09:34:52;3.40;;;1.00;;
44046;SDS011;29713;-33.888;151.150;2022-10-16T09:37:24;4.03;;;1.10;;
44046;SDS011;29713;-33.888;151.150;2022-10-16T09:39:53;1.60;;;0.82;;
44046;SDS011;29713;-33.888;151.150;2022-10-16T09:42:30;6.05;;;1.20;;
44046;SDS011;29713;-33.888;151.150;2022-10-16T09:44:59;2.42;;;0.90;;
44046;SDS011;29713;-33.888;151.150;2022-10-16T09:47:27;2.20;;;0.80;;
44046;SDS011;29713;-33.888;151.150;2022-10-16T09:50:00;3.05;;;0.85;;
44046;SDS011;29713;-33.888;151.150;2022-10-16T09:52:32;4.88;;;1.25;;
44046;SDS011;29713;-33.888;151.150;2022-10-16T09:55:01;6.80;;;1.10;;
44046;SDS011;29713;-33.888;151.150;2022-10-16T09:57:52;5.57;;;1.30;;
44046;SDS011;29713;-33.888;151.150;2022-10-16T10:00:21;8.73;;;1.45;;
44046;SDS011;29713;-33.888;151.150;2022-10-16T10:02:50;2.60;;;1.00;;
44046;SDS011;29713;-33.888;151.150;2022-10-16T10:05:25;5.68;;;1.20;;
44046;SDS011;29713;-33.888;151.150;2022-10-16T10:07:58;5.38;;;1.55;;
44046;SDS011;29713;-33.888;151.150;2022-10-16T10:10:32;7.13;;;1.50;;
44046;SDS011;29713;-33.888;151.150;2022-10-16T10:13:03;5.45;;;1.30;;
44046;SDS011;29713;-33.888;151.150;2022-10-16T10:15:33;4.38;;;1.30;;
44046;SDS011;29713;-33.888;151.150;2022-10-16T10:18:02;4.07;;;1.25;;
44046;SDS011;29713;-33.888;151.150;2022-10-16T10:20:42;5.82;;;1.42;;
44046;SDS011;29713;-33.888;151.150;2022-10-16T10:23:23;6.95;;;1.63;;
44046;SDS011;29713;-33.888;151.150;2022-10-16T10:26:11;4.45;;;1.30;;
44046;SDS011;29713;-33.888;151.150;2022-10-16T10:31:55;6.30;;;1.58;;
44046;SDS011;29713;-33.888;151.150;2022-10-16T10:35:01;6.43;;;1.20;;
44046;SDS011;29713;-33.888;151.150;2022-10-16T10:37:54;8.00;;;1.42;;
44046;SDS011;29713;-33.888;151.150;2022-10-16T10:45:59;5.70;;;1.50;;
44046;SDS011;29713;-33.888;151.150;2022-10-16T10:54:07;6.63;;;1.30;;
44046;SDS011;29713;-33.888;151.150;2022-10-16T10:59:28;6.80;;;1.80;;
44046;SDS011;29713;-33.888;151.150;2022-10-16T11:10:46;5.68;;;1.50;;
44046;SDS011;29713;-33.888;151.150;2022-10-16T11:13:32;7.15;;;1.90;;
44046;SDS011;29713;-33.888;151.150;2022-10-16T11:16:13;6.85;;;1.48;;
44046;SDS011;29713;-33.888;151.150;2022-10-16T11:21:55;7.47;;;1.60;;
44046;SDS011;29713;-33.888;151.150;2022-10-16T11:24:41;6.03;;;1.30;;
44046;SDS011;29713;-33.888;151.150;2022-10-16T11:27:20;5.80;;;2.00;;
44046;SDS011;29713;-33.888;151.150;2022-10-16T11:29:56;7.97;;;1.50;;
44046;SDS011;29713;-33.888;151.150;2022-10-16T11:32:32;9.45;;;2.33;;
44046;SDS011;29713;-33.888;151.150;2022-10-16T11:35:08;8.82;;;1.73;;
44046;SDS011;29713;-33.888;151.150;2022-10-16T11:37:44;13.90;;;1.65;;
44046;SDS011;29713;-33.888;151.150;2022-10-16T11:43:02;13.40;;;2.03;;
44046;SDS011;29713;-33.888;151.150;2022-10-16T11:45:44;9.90;;;1.70;;
44046;SDS011;29713;-33.888;151.150;2022-10-16T11:56:32;7.35;;;1.90;;
44046;SDS011;29713;-33.888;151.150;2022-10-16T11:59:28;8.50;;;1.67;;
44046;SDS011;29713;-33.888;151.150;2022-10-16T12:02:21;5.50;;;1.25;;
44046;SDS011;29713;-33.888;151.150;2022-10-16T12:08:11;7.20;;;1.55;;
44046;SDS011;29713;-33.888;151.150;2022-10-16T12:10:41;6.18;;;1.90;;
44046;SDS011;29713;-33.888;151.150;2022-10-16T12:18:38;7.05;;;1.63;;
44046;SDS011;29713;-33.888;151.150;2022-10-16T12:21:06;11.77;;;1.88;;
44046;SDS011;29713;-33.888;151.150;2022-10-16T12:23:37;4.15;;;1.27;;
44046;SDS011;29713;-33.888;151.150;2022-10-16T12:26:13;6.32;;;1.52;;
44046;SDS011;29713;-33.888;151.150;2022-10-16T12:28:49;8.80;;;1.52;;
44046;SDS011;29713;-33.888;151.150;2022-10-16T12:31:17;7.65;;;2.10;;
44046;SDS011;29713;-33.888;151.150;2022-10-16T12:34:01;7.63;;;1.50;;
44046;SDS011;29713;-33.888;151.150;2022-10-16T12:36:32;7.38;;;1.85;;
44046;SDS011;29713;-33.888;151.150;2022-10-16T12:39:01;7.43;;;1.67;;
44046;SDS011;29713;-33.888;151.150;2022-10-16T12:41:30;8.60;;;1.80;;
44046;SDS011;29713;-33.888;151.150;2022-10-16T12:44:00;8.80;;;1.83;;
44046;SDS011;29713;-33.888;151.150;2022-10-16T12:49:50;11.57;;;1.60;;
44046;SDS011;29713;-33.888;151.150;2022-10-16T12:51:54;7.47;;;1.55;;
44046;SDS011;29713;-33.888;151.150;2022-10-16T13:08:27;6.78;;;1.10;;
44046;SDS011;29713;-33.888;151.150;2022-10-16T13:19:07;7.15;;;1.40;;
44046;SDS011;29713;-33.888;151.150;2022-10-16T13:29:32;7.28;;;1.75;;
44046;SDS011;29713;-33.888;151.150;2022-10-16T13:32:00;8.05;;;1.45;;
44046;SDS011;29713;-33.888;151.150;2022-10-16T13:34:44;6.03;;;1.33;;
44046;SDS011;29713;-33.888;151.150;2022-10-16T13:37:17;6.25;;;1.55;;
44046;SDS011;29713;-33.888;151.150;2022-10-16T13:39:47;7.28;;;1.17;;
44046;SDS011;29713;-33.888;151.150;2022-10-16T13:42:28;8.45;;;1.60;;
44046;SDS011;29713;-33.888;151.150;2022-10-16T13:44:56;8.52;;;1.75;;
44046;SDS011;29713;-33.888;151.150;2022-10-16T13:47:27;7.35;;;2.15;;
44046;SDS011;29713;-33.888;151.150;2022-10-16T13:52:35;9.32;;;1.73;;
44046;SDS011;29713;-33.888;151.150;2022-10-16T13:55:04;12.10;;;1.70;;
44046;SDS011;29713;-33.888;151.150;2022-10-16T13:57:39;9.13;;;1.63;;
44046;SDS011;29713;-33.888;151.150;2022-10-16T14:00:22;8.68;;;1.65;;
44046;SDS011;29713;-33.888;151.150;2022-10-16T14:02:57;7.97;;;1.45;;
44046;SDS011;29713;-33.888;151.150;2022-10-16T14:05:29;6.18;;;1.40;;
44046;SDS011;29713;-33.888;151.150;2022-10-16T14:07:56;4.75;;;1.52;;
44046;SDS011;29713;-33.888;151.150;2022-10-16T14:10:26;8.35;;;1.27;;
44046;SDS011;29713;-33.888;151.150;2022-10-16T14:12:59;5.90;;;1.50;;
44046;SDS011;29713;-33.888;151.150;2022-10-16T14:15:30;6.30;;;1.50;;
44046;SDS011;29713;-33.888;151.150;2022-10-16T14:17:59;7.32;;;1.65;;
44046;SDS011;29713;-33.888;151.150;2022-10-16T14:20:28;6.45;;;1.52;;
44046;SDS011;29713;-33.888;151.150;2022-10-16T14:23:16;7.72;;;1.70;;
44046;SDS011;29713;-33.888;151.150;2022-10-16T14:25:45;5.47;;;1.17;;
44046;SDS011;29713;-33.888;151.150;2022-10-16T14:33:53;5.90;;;1.27;;
44046;SDS011;29713;-33.888;151.150;2022-10-16T14:36:21;7.55;;;1.33;;
44046;SDS011;29713;-33.888;151.150;2022-10-16T14:41:31;6.53;;;1.40;;
44046;SDS011;29713;-33.888;151.150;2022-10-16T14:44:09;4.72;;;1.42;;
44046;SDS011;29713;-33.888;151.150;2022-10-16T14:46:39;6.85;;;1.80;;
44046;SDS011;29713;-33.888;151.150;2022-10-16T14:51:36;5.97;;;1.35;;
44046;SDS011;29713;-33.888;151.150;2022-10-16T14:54:10;7.05;;;1.60;;
44046;SDS011;29713;-33.888;151.150;2022-10-16T14:56:52;4.80;;;1.17;;
44046;SDS011;29713;-33.888;151.150;2022-10-16T14:59:31;6.70;;;1.70;;
44046;SDS011;29713;-33.888;151.150;2022-10-16T15:04:48;7.00;;;1.48;;
44046;SDS011;29713;-33.888;151.150;2022-10-16T15:07:16;10.27;;;1.67;;
44046;SDS011;29713;-33.888;151.150;2022-10-16T15:09:43;6.78;;;1.30;;
44046;SDS011;29713;-33.888;151.150;2022-10-16T15:12:10;6.28;;;1.52;;
44046;SDS011;29713;-33.888;151.150;2022-10-16T15:14:38;5.78;;;1.23;;
44046;SDS011;29713;-33.888;151.150;2022-10-16T15:17:05;7.75;;;1.40;;
44046;SDS011;29713;-33.888;151.150;2022-10-16T15:19:35;9.90;;;1.85;;
44046;SDS011;29713;-33.888;151.150;2022-10-16T15:22:02;8.30;;;2.40;;
44046;SDS011;29713;-33.888;151.150;2022-10-16T15:24:29;7.97;;;1.77;;
44046;SDS011;29713;-33.888;151.150;2022-10-16T15:26:57;11.52;;;1.85;;
44046;SDS011;29713;-33.888;151.150;2022-10-16T15:29:24;7.50;;;1.42;;
44046;SDS011;29713;-33.888;151.150;2022-10-16T15:31:51;5.70;;;1.83;;
44046;SDS011;29713;-33.888;151.150;2022-10-16T15:34:18;5.22;;;1.20;;
44046;SDS011;29713;-33.888;151.150;2022-10-16T15:36:46;7.45;;;1.42;;
44046;SDS011;29713;-33.888;151.150;2022-10-16T15:39:14;6.65;;;1.83;;
44046;SDS011;29713;-33.888;151.150;2022-10-16T15:41:44;5.68;;;1.55;;
44046;SDS011;29713;-33.888;151.150;2022-10-16T15:44:19;5.35;;;1.02;;
44046;SDS011;29713;-33.888;151.150;2022-10-16T15:46:48;8.35;;;1.30;;
44046;SDS011;29713;-33.888;151.150;2022-10-16T15:49:16;8.60;;;1.80;;
44046;SDS011;29713;-33.888;151.150;2022-10-16T15:51:44;5.53;;;1.00;;
44046;SDS011;29713;-33.888;151.150;2022-10-16T15:54:12;8.48;;;1.48;;
44046;SDS011;29713;-33.888;151.150;2022-10-16T15:56:39;10.63;;;2.00;;
44046;SDS011;29713;-33.888;151.150;2022-10-16T15:59:06;6.97;;;1.25;;
44046;SDS011;29713;-33.888;151.150;2022-10-16T16:01:34;9.20;;;1.60;;
44046;SDS011;29713;-33.888;151.150;2022-10-16T16:04:02;9.70;;;1.35;;
44046;SDS011;29713;-33.888;151.150;2022-10-16T16:06:32;6.88;;;1.65;;
44046;SDS011;29713;-33.888;151.150;2022-10-16T16:09:00;5.95;;;1.27;;
44046;SDS011;29713;-33.888;151.150;2022-10-16T16:11:27;8.30;;;1.80;;
44046;SDS011;29713;-33.888;151.150;2022-10-16T16:13:57;10.80;;;2.07;;
44046;SDS011;29713;-33.888;151.150;2022-10-16T16:16:24;12.30;;;1.90;;
44046;SDS011;29713;-33.888;151.150;2022-10-16T16:18:52;9.07;;;1.77;;
44046;SDS011;29713;-33.888;151.150;2022-10-16T16:21:19;8.37;;;2.40;;
44046;SDS011;29713;-33.888;151.150;2022-10-16T16:23:47;12.33;;;2.30;;
44046;SDS011;29713;-33.888;151.150;2022-10-16T16:26:24;9.00;;;1.87;;
44046;SDS011;29713;-33.888;151.150;2022-10-16T16:29:02;9.63;;;2.10;;
44046;SDS011;29713;-33.888;151.150;2022-10-16T16:31:31;9.87;;;1.73;;
44046;SDS011;29713;-33.888;151.150;2022-10-16T16:34:00;12.13;;;1.90;;
44046;SDS011;29713;-33.888;151.150;2022-10-16T16:36:27;5.67;;;1.47;;
44046;SDS011;29713;-33.888;151.150;2022-10-16T16:38:54;5.22;;;1.50;;
44046;SDS011;29713;-33.888;151.150;2022-10-16T16:41:23;7.73;;;1.30;;
44046;SDS011;29713;-33.888;151.150;2022-10-16T16:43:53;5.93;;;1.30;;
44046;SDS011;29713;-33.888;151.150;2022-10-16T16:46:21;7.50;;;1.37;;
44046;SDS011;29713;-33.888;151.150;2022-10-16T16:48:48;7.23;;;1.50;;
44046;SDS011;29713;-33.888;151.150;2022-10-16T16:51:18;7.30;;;1.30;;
44046;SDS011;29713;-33.888;151.150;2022-10-16T16:53:46;4.47;;;1.23;;